This is the latest recevied weather packets stored in our database for station/object IZ5MJO-13. If no packets are shown the sender has not sent any weather packets the latest 10 day(s).
| Time | Temp. | Humidity | Pressure | Rain* | Wind** | Luminosity | Snow |
|---|---|---|---|---|---|---|---|
| 1787574936 | 36.67° C | 30% | 1006.2 hPa | - | - | - | - |
| 1787573994 | 36.67° C | 32% | 1006.3 hPa | - | - | - | - |
| 1787573450 | 36.11° C | 32% | 1006.4 hPa | - | - | - | - |
| 1787573093 | 36.11° C | 32% | 1006.4 hPa | - | - | - | - |
| 1787572749 | 34.44° C | 27% | 1006.4 hPa | - | - | - | - |
| 1787572742 | 34.44° C | 36% | 1006.4 hPa | - | - | - | - |
| 1787572735 | 33.89° C | 33% | 1006.5 hPa | - | - | - | - |
| 1787572728 | 32.78° C | 38% | 1006.4 hPa | - | - | - | - |
| 1787572721 | 31.67° C | 41% | 1006.7 hPa | - | - | - | - |
| 1787572714 | 30.56° C | 40% | 1006.7 hPa | - | - | - | - |
| 1787572707 | 30.56° C | 41% | 1006.8 hPa | - | - | - | - |
| 1787572700 | 29.44° C | 41% | 1006.9 hPa | - | - | - | - |
| 1787572693 | 28.89° C | 42% | 1006.9 hPa | - | - | - | - |
| 1787572686 | 28.33° C | 43% | 1007 hPa | - | - | - | - |
| 1787572679 | 27.78° C | 45% | 1007.1 hPa | - | - | - | - |
| 1787572672 | 27.22° C | 46% | 1007.2 hPa | - | - | - | - |
| 1787572665 | 26.67° C | 47% | 1007.1 hPa | - | - | - | - |
| 1787572658 | 26.67° C | 47% | 1007.2 hPa | - | - | - | - |
| 1787572193 | 34.44° C | 27% | 1006.4 hPa | - | - | - | - |
| 1787571293 | 34.44° C | 36% | 1006.4 hPa | - | - | - | - |
| 1787570393 | 33.89° C | 33% | 1006.5 hPa | - | - | - | - |
| 1787569493 | 32.78° C | 38% | 1006.4 hPa | - | - | - | - |
| 1787568592 | 31.67° C | 41% | 1006.7 hPa | - | - | - | - |
| 1787567692 | 30.56° C | 40% | 1006.7 hPa | - | - | - | - |
| 1787566792 | 30.56° C | 41% | 1006.8 hPa | - | - | - | - |
* Rain since midnight (hover to see other rain measurements)
** Current wind speed in m/s (hover to see current wind gust speed)